Time;durP1;ratioP1;P1;durP2;ratioP2;P2;SDS_P1;SDS_P2;PMS_P1;PMS_P2;Temp;Humidity;BMP_temperature;BMP_pressure;BME280_temperature;BME280_humidity;BME280_pressure;Samples;Min_cycle;Max_cycle;Signal;HPM_P1;HPM_P2
2021/12/08 00:00:12;;;;;;;9.23;4.22;;;;;;;;;;5007738;28;20034;-71
2021/12/08 00:02:58;;;;;;;8.13;3.50;;;;;;;;;;5003529;28;20026;-69
2021/12/08 00:05:44;;;;;;;7.03;3.63;;;;;;;;;;5005446;28;20392;-71
2021/12/08 00:08:30;;;;;;;7.35;3.60;;;;;;;;;;5008522;28;20030;-70
2021/12/08 00:14:19;;;;;;;4.90;2.75;;;;;;;;;;4999335;28;20037;-64
2021/12/08 00:17:05;;;;;;;6.05;3.25;;;;;;;;;;5006548;28;20432;-67
2021/12/08 00:19:50;;;;;;;7.28;3.65;;;;;;;;;;5008063;28;20433;-66
2021/12/08 00:22:36;;;;;;;8.00;3.10;;;;;;;;;;5005430;28;20440;-65
2021/12/08 00:25:21;;;;;;;7.45;2.92;;;;;;;;;;5007817;28;20057;-65
2021/12/08 00:28:06;;;;;;;7.38;3.22;;;;;;;;;;5007954;28;20362;-64
2021/12/08 00:30:53;;;;;;;5.78;2.83;;;;;;;;;;5008026;28;20641;-69
2021/12/08 00:33:38;;;;;;;4.95;2.33;;;;;;;;;;5011242;28;20030;-70
2021/12/08 00:36:30;;;;;;;6.13;2.55;;;;;;;;;;5011075;28;20029;-69
2021/12/08 00:39:16;;;;;;;4.47;2.38;;;;;;;;;;5011399;28;20085;-68
2021/12/08 00:42:02;;;;;;;6.05;2.85;;;;;;;;;;5010255;28;20074;-69
2021/12/08 00:44:47;;;;;;;5.35;2.42;;;;;;;;;;4991835;28;20120;-72
2021/12/08 00:47:32;;;;;;;5.75;2.75;;;;;;;;;;5006346;28;20496;-62
2021/12/08 00:50:20;;;;;;;7.05;2.97;;;;;;;;;;5011458;28;20044;-62
2021/12/08 00:53:05;;;;;;;5.05;2.60;;;;;;;;;;5009844;28;20128;-60
2021/12/08 00:55:50;;;;;;;7.45;2.85;;;;;;;;;;4997383;28;20520;-63
2021/12/08 00:58:35;;;;;;;14.75;4.13;;;;;;;;;;5009921;28;20069;-64
2021/12/08 01:01:22;;;;;;;4.50;2.35;;;;;;;;;;5010498;28;20149;-61
2021/12/08 01:04:07;;;;;;;6.00;2.35;;;;;;;;;;5008216;28;20034;-66
2021/12/08 01:06:52;;;;;;;6.53;2.58;;;;;;;;;;4997225;28;20042;-61
2021/12/08 01:09:38;;;;;;;7.25;2.63;;;;;;;;;;5009226;28;20044;-63
2021/12/08 01:12:23;;;;;;;5.88;2.20;;;;;;;;;;5010621;28;20037;-60
2021/12/08 01:15:09;;;;;;;6.57;2.60;;;;;;;;;;5007321;28;20176;-61
2021/12/08 01:17:55;;;;;;;6.28;2.25;;;;;;;;;;5010913;28;20482;-64
2021/12/08 01:20:40;;;;;;;7.00;2.05;;;;;;;;;;5007041;28;20033;-62
2021/12/08 01:23:26;;;;;;;6.63;2.97;;;;;;;;;;4982529;28;20481;-65
2021/12/08 01:26:12;;;;;;;7.32;2.47;;;;;;;;;;5009339;28;20630;-69
2021/12/08 01:28:57;;;;;;;9.27;3.50;;;;;;;;;;5005522;28;20100;-70
2021/12/08 01:31:44;;;;;;;6.85;2.45;;;;;;;;;;5010643;28;20034;-69
2021/12/08 01:34:29;;;;;;;4.20;2.20;;;;;;;;;;5009217;28;20053;-69
2021/12/08 01:37:14;;;;;;;7.13;2.50;;;;;;;;;;5009889;28;20033;-70
2021/12/08 01:40:00;;;;;;;7.75;2.40;;;;;;;;;;5008027;28;20033;-73
2021/12/08 01:42:47;;;;;;;3.70;2.15;;;;;;;;;;4996466;28;20034;-68
2021/12/08 01:48:38;;;;;;;5.95;2.17;;;;;;;;;;5009942;28;20046;-70
2021/12/08 01:51:25;;;;;;;3.58;2.25;;;;;;;;;;5009324;28;20048;-69
2021/12/08 01:54:10;;;;;;;6.50;2.10;;;;;;;;;;5010346;28;20079;-69
2021/12/08 01:56:57;;;;;;;3.83;2.13;;;;;;;;;;5008863;28;20034;-68
2021/12/08 01:59:42;;;;;;;6.15;2.22;;;;;;;;;;4994437;28;20381;-67
2021/12/08 02:02:27;;;;;;;3.72;1.90;;;;;;;;;;5005742;28;20045;-66
2021/12/08 02:05:13;;;;;;;4.97;1.90;;;;;;;;;;4990719;28;20041;-64
2021/12/08 02:07:58;;;;;;;6.03;2.50;;;;;;;;;;4996170;28;20053;-64
2021/12/08 02:10:44;;;;;;;4.47;2.15;;;;;;;;;;5008424;28;20033;-68
2021/12/08 02:13:35;;;;;;;4.68;2.22;;;;;;;;;;4996166;28;20088;-66
2021/12/08 02:16:21;;;;;;;5.53;2.13;;;;;;;;;;5008409;28;20107;-65
2021/12/08 02:19:07;;;;;;;4.85;2.10;;;;;;;;;;5009904;28;20041;-70
2021/12/08 02:21:52;;;;;;;5.50;2.50;;;;;;;;;;4994461;28;20068;-62
2021/12/08 02:24:37;;;;;;;6.82;2.55;;;;;;;;;;5008976;28;20029;-64
2021/12/08 02:27:23;;;;;;;5.70;1.98;;;;;;;;;;4995148;28;20037;-63
2021/12/08 02:30:19;;;;;;;4.80;2.00;;;;;;;;;;5003272;28;20034;-62
2021/12/08 02:48:26;;;;;;;4.88;2.42;;;;;;;;;;5001853;28;20477;-69
2021/12/08 02:51:11;;;;;;;4.85;2.38;;;;;;;;;;5008033;28;20412;-70
2021/12/08 02:54:00;;;;;;;6.70;2.67;;;;;;;;;;4993804;28;20047;-72
2021/12/08 02:56:45;;;;;;;4.30;2.10;;;;;;;;;;4994534;28;20041;-73
2021/12/08 02:59:31;;;;;;;7.20;2.72;;;;;;;;;;5007512;28;21331;-71
2021/12/08 03:02:16;;;;;;;4.85;2.53;;;;;;;;;;5008622;28;20049;-71
2021/12/08 03:05:03;;;;;;;6.97;3.10;;;;;;;;;;5005041;28;20049;-72
2021/12/08 03:07:51;;;;;;;4.55;2.25;;;;;;;;;;4999728;28;20038;-72
2021/12/08 03:10:39;;;;;;;5.35;2.60;;;;;;;;;;5008862;28;20486;-73
2021/12/08 03:13:30;;;;;;;8.40;3.10;;;;;;;;;;5003542;28;20366;-69
2021/12/08 03:16:15;;;;;;;7.43;3.25;;;;;;;;;;5019753;28;20041;-67
2021/12/08 03:19:01;;;;;;;7.25;2.67;;;;;;;;;;5007583;28;20030;-65
2021/12/08 03:21:46;;;;;;;6.47;2.70;;;;;;;;;;4983913;28;20109;-65
2021/12/08 03:24:36;;;;;;;6.75;2.65;;;;;;;;;;5006593;28;20161;-65
2021/12/08 03:27:28;;;;;;;6.03;2.50;;;;;;;;;;5008137;28;20040;-63
2021/12/08 03:30:22;;;;;;;5.28;3.17;;;;;;;;;;4978832;28;20301;-71
2021/12/08 03:33:09;;;;;;;7.43;2.50;;;;;;;;;;4998799;28;20030;-66
2021/12/08 03:35:54;;;;;;;7.07;2.90;;;;;;;;;;5007296;28;20033;-61
2021/12/08 03:38:40;;;;;;;5.53;2.78;;;;;;;;;;5007916;28;20049;-63
2021/12/08 03:41:31;;;;;;;4.72;2.58;;;;;;;;;;5006365;28;20029;-62
2021/12/08 03:44:16;;;;;;;6.75;2.85;;;;;;;;;;4992558;28;20037;-63
2021/12/08 03:47:03;;;;;;;4.55;2.35;;;;;;;;;;5008059;28;20037;-62
2021/12/08 03:49:48;;;;;;;5.20;2.40;;;;;;;;;;4993156;28;20026;-64
2021/12/08 03:52:33;;;;;;;4.32;2.75;;;;;;;;;;5008449;28;20042;-68
2021/12/08 03:55:19;;;;;;;5.57;3.40;;;;;;;;;;5007203;28;20060;-71
2021/12/08 03:58:04;;;;;;;7.47;4.57;;;;;;;;;;5007670;28;20045;-69
2021/12/08 04:00:50;;;;;;;7.22;2.95;;;;;;;;;;5006714;28;20469;-68
2021/12/08 04:03:36;;;;;;;6.40;3.15;;;;;;;;;;5001332;28;20042;-68
2021/12/08 04:09:40;;;;;;;8.55;3.40;;;;;;;;;;5004505;28;20060;-64
2021/12/08 04:12:25;;;;;;;10.23;4.50;;;;;;;;;;4966992;28;20034;-62
2021/12/08 04:15:12;;;;;;;7.00;3.50;;;;;;;;;;5009860;28;20030;-61
2021/12/08 04:17:57;;;;;;;6.07;3.75;;;;;;;;;;5005117;28;20389;-61
2021/12/08 04:20:47;;;;;;;6.43;3.45;;;;;;;;;;4996777;28;20048;-60
2021/12/08 04:23:36;;;;;;;11.57;3.38;;;;;;;;;;5012472;28;20542;-61
2021/12/08 04:26:32;;;;;;;7.07;3.97;;;;;;;;;;5007504;28;20049;-70
2021/12/08 04:29:19;;;;;;;7.18;3.72;;;;;;;;;;5011298;28;20076;-64
2021/12/08 04:32:06;;;;;;;5.25;3.33;;;;;;;;;;5007018;28;20038;-68
2021/12/08 04:34:53;;;;;;;8.40;3.38;;;;;;;;;;5011667;28;20037;-64
2021/12/08 04:37:41;;;;;;;12.38;4.47;;;;;;;;;;5010712;28;20068;-65
2021/12/08 04:40:35;;;;;;;8.70;3.58;;;;;;;;;;5009962;28;20029;-67
2021/12/08 04:46:27;;;;;;;8.85;3.72;;;;;;;;;;5010862;28;20026;-64
2021/12/08 05:01:32;;;;;;;6.13;4.15;;;;;;;;;;5001115;28;20031;-71
2021/12/08 05:10:05;;;;;;;12.02;5.85;;;;;;;;;;4997319;28;20045;-61
2021/12/08 05:12:52;;;;;;;8.82;5.20;;;;;;;;;;4981058;28;20096;-61
2021/12/08 05:15:42;;;;;;;9.10;4.80;;;;;;;;;;4991089;28;20026;-61
2021/12/08 05:18:33;;;;;;;11.80;5.55;;;;;;;;;;5005663;28;20561;-64
2021/12/08 05:21:22;;;;;;;9.25;5.18;;;;;;;;;;5003365;28;20543;-71
2021/12/08 05:24:13;;;;;;;10.07;6.05;;;;;;;;;;4999358;28;20034;-72
2021/12/08 05:27:02;;;;;;;12.02;6.28;;;;;;;;;;4991333;28;20088;-70
2021/12/08 05:29:53;;;;;;;14.93;5.80;;;;;;;;;;5003260;28;20430;-71
2021/12/08 05:32:39;;;;;;;11.52;5.47;;;;;;;;;;4996343;28;20046;-72
2021/12/08 05:35:25;;;;;;;15.57;5.85;;;;;;;;;;4997615;28;20120;-74
2021/12/08 05:38:11;;;;;;;17.75;8.63;;;;;;;;;;4997205;28;20038;-72
2021/12/08 05:40:58;;;;;;;14.10;6.40;;;;;;;;;;5009482;28;20560;-71
2021/12/08 05:43:45;;;;;;;12.30;6.75;;;;;;;;;;5009290;28;20768;-65
2021/12/08 05:46:31;;;;;;;15.48;6.65;;;;;;;;;;5006363;28;20034;-67
2021/12/08 05:49:17;;;;;;;10.82;5.93;;;;;;;;;;4993013;28;20089;-67
2021/12/08 05:52:03;;;;;;;10.43;5.85;;;;;;;;;;5009664;28;20390;-64
2021/12/08 05:54:49;;;;;;;12.43;6.97;;;;;;;;;;5008972;28;20065;-66
2021/12/08 05:57:37;;;;;;;14.52;5.78;;;;;;;;;;5009992;28;20447;-65
2021/12/08 06:00:27;;;;;;;10.30;6.97;;;;;;;;;;4994384;28;20021;-70
2021/12/08 06:03:12;;;;;;;14.60;5.78;;;;;;;;;;5009718;28;20029;-65
2021/12/08 06:05:58;;;;;;;9.90;4.72;;;;;;;;;;5008897;28;20022;-65
2021/12/08 06:08:43;;;;;;;11.60;5.70;;;;;;;;;;5010472;28;20044;-66
2021/12/08 06:11:28;;;;;;;8.85;4.93;;;;;;;;;;5009401;28;20042;-68
2021/12/08 06:14:14;;;;;;;15.25;5.28;;;;;;;;;;4990283;28;20109;-66
2021/12/08 06:17:06;;;;;;;15.52;5.57;;;;;;;;;;5006421;28;20034;-70
2021/12/08 06:19:52;;;;;;;13.82;7.40;;;;;;;;;;4995684;28;20022;-69
2021/12/08 06:22:38;;;;;;;13.60;6.25;;;;;;;;;;5007821;28;20433;-72
2021/12/08 06:25:24;;;;;;;12.93;6.75;;;;;;;;;;4991190;28;20029;-70
2021/12/08 06:28:10;;;;;;;10.77;6.43;;;;;;;;;;5006480;28;20038;-69
2021/12/08 06:30:55;;;;;;;16.65;8.20;;;;;;;;;;4986739;28;20481;-62
2021/12/08 06:33:40;;;;;;;15.77;7.15;;;;;;;;;;4993356;28;20030;-72
2021/12/08 06:36:28;;;;;;;12.40;7.28;;;;;;;;;;4998107;28;20064;-66
2021/12/08 06:39:19;;;;;;;10.57;6.75;;;;;;;;;;4991017;28;20030;-72
2021/12/08 06:42:07;;;;;;;12.63;6.28;;;;;;;;;;5007939;28;20549;-71
2021/12/08 06:44:53;;;;;;;13.30;6.22;;;;;;;;;;5010384;28;20037;-69
2021/12/08 06:47:38;;;;;;;13.40;6.95;;;;;;;;;;4999475;28;20034;-69
2021/12/08 06:50:26;;;;;;;10.60;6.70;;;;;;;;;;5009288;28;20045;-71
2021/12/08 06:53:11;;;;;;;14.38;6.32;;;;;;;;;;5007780;28;20091;-68
2021/12/08 06:55:59;;;;;;;37.28;25.70;;;;;;;;;;5008274;28;20120;-71
2021/12/08 06:58:48;;;;;;;24.85;15.95;;;;;;;;;;4993818;28;20087;-72
2021/12/08 07:04:30;;;;;;;13.73;7.82;;;;;;;;;;5005027;28;20044;-70
2021/12/08 07:07:17;;;;;;;13.32;7.50;;;;;;;;;;5007719;28;20049;-69
2021/12/08 07:10:10;;;;;;;14.95;9.20;;;;;;;;;;5020213;28;20321;-71
2021/12/08 07:13:00;;;;;;;11.00;7.10;;;;;;;;;;4999037;28;20030;-66
2021/12/08 07:16:06;;;;;;;12.35;8.32;;;;;;;;;;4989629;28;20049;-68
2021/12/08 07:19:01;;;;;;;16.27;7.38;;;;;;;;;;5007072;28;20018;-66
2021/12/08 07:21:46;;;;;;;12.15;6.38;;;;;;;;;;4996815;28;20092;-66
2021/12/08 07:24:34;;;;;;;14.25;6.78;;;;;;;;;;4982511;28;20044;-65
2021/12/08 07:27:24;;;;;;;13.60;6.93;;;;;;;;;;5009083;28;20234;-66
2021/12/08 07:30:12;;;;;;;11.15;7.18;;;;;;;;;;5005389;28;20025;-68
2021/12/08 07:32:57;;;;;;;9.50;6.10;;;;;;;;;;4982666;28;20543;-68
2021/12/08 07:35:45;;;;;;;12.43;6.85;;;;;;;;;;5006830;28;20036;-68
2021/12/08 07:38:31;;;;;;;10.85;6.70;;;;;;;;;;4992043;28;20536;-68
2021/12/08 07:41:19;;;;;;;11.23;6.25;;;;;;;;;;4995039;28;20045;-68
2021/12/08 07:44:06;;;;;;;13.80;6.97;;;;;;;;;;5007649;28;20152;-68
2021/12/08 07:46:57;;;;;;;15.65;6.35;;;;;;;;;;4994745;28;20109;-68
2021/12/08 07:49:45;;;;;;;11.43;7.68;;;;;;;;;;5007602;28;20072;-66
2021/12/08 07:52:33;;;;;;;15.73;7.53;;;;;;;;;;4995212;28;20033;-70
2021/12/08 07:55:22;;;;;;;12.85;6.57;;;;;;;;;;5007493;28;20034;-69
2021/12/08 07:58:09;;;;;;;9.70;6.13;;;;;;;;;;5008643;28;20076;-65
2021/12/08 08:00:56;;;;;;;11.68;7.43;;;;;;;;;;5007927;28;20041;-68
2021/12/08 08:03:42;;;;;;;10.82;7.95;;;;;;;;;;5008398;28;20600;-65
2021/12/08 08:06:29;;;;;;;8.88;5.93;;;;;;;;;;4976469;28;20258;-68
2021/12/08 08:09:20;;;;;;;14.80;7.85;;;;;;;;;;5008341;28;20376;-72
2021/12/08 08:12:08;;;;;;;13.50;7.57;;;;;;;;;;5002373;28;20035;-70
2021/12/08 08:14:55;;;;;;;12.13;8.20;;;;;;;;;;4986015;28;20042;-69
2021/12/08 08:17:44;;;;;;;12.45;7.18;;;;;;;;;;5008537;28;20389;-69
2021/12/08 08:20:31;;;;;;;11.43;6.93;;;;;;;;;;5006460;28;20495;-70
2021/12/08 08:23:18;;;;;;;12.35;7.60;;;;;;;;;;4989027;28;20034;-70
2021/12/08 08:26:05;;;;;;;11.10;7.70;;;;;;;;;;5000488;28;20053;-67
2021/12/08 08:28:52;;;;;;;14.55;8.27;;;;;;;;;;4994925;28;20083;-67
2021/12/08 08:31:41;;;;;;;12.38;7.53;;;;;;;;;;4977459;28;20065;-69
2021/12/08 08:34:34;;;;;;;13.50;8.10;;;;;;;;;;5002559;28;20493;-69
2021/12/08 08:37:21;;;;;;;11.18;6.60;;;;;;;;;;5006757;28;20433;-68
2021/12/08 08:40:10;;;;;;;15.23;7.55;;;;;;;;;;5008208;28;20061;-65
2021/12/08 08:42:57;;;;;;;11.27;7.22;;;;;;;;;;5007099;28;20040;-72
2021/12/08 08:45:44;;;;;;;11.57;6.53;;;;;;;;;;5007462;28;20065;-64
2021/12/08 08:48:32;;;;;;;9.63;5.70;;;;;;;;;;5002750;28;20434;-70
2021/12/08 08:51:17;;;;;;;13.82;7.22;;;;;;;;;;5010331;28;20109;-71
2021/12/08 08:54:04;;;;;;;10.88;6.28;;;;;;;;;;5002973;28;20422;-68
2021/12/08 08:56:53;;;;;;;14.63;6.75;;;;;;;;;;5007180;28;20037;-68
2021/12/08 08:59:45;;;;;;;12.57;7.13;;;;;;;;;;5010278;28;20041;-70
2021/12/08 09:02:37;;;;;;;10.68;6.50;;;;;;;;;;5008101;28;20284;-63
2021/12/08 09:05:27;;;;;;;10.50;6.30;;;;;;;;;;5011002;28;20393;-69
2021/12/08 09:08:15;;;;;;;11.82;5.45;;;;;;;;;;5003783;28;20064;-71
2021/12/08 09:11:12;;;;;;;11.63;6.05;;;;;;;;;;4997213;28;20037;-74
2021/12/08 09:14:00;;;;;;;20.63;12.93;;;;;;;;;;4982000;28;20409;-73
2021/12/08 09:17:04;;;;;;;10.25;5.80;;;;;;;;;;4996872;28;20068;-73
2021/12/08 09:19:55;;;;;;;10.50;6.13;;;;;;;;;;4994090;28;20029;-71
2021/12/08 09:22:44;;;;;;;13.77;7.35;;;;;;;;;;4976585;28;20029;-78
2021/12/08 09:25:34;;;;;;;15.18;7.10;;;;;;;;;;5017595;28;20041;-75
2021/12/08 09:28:26;;;;;;;12.38;6.50;;;;;;;;;;4995860;28;20384;-72
2021/12/08 09:31:23;;;;;;;10.00;6.22;;;;;;;;;;5006969;28;20373;-73
2021/12/08 09:34:20;;;;;;;11.32;6.70;;;;;;;;;;5002865;28;20198;-72
2021/12/08 09:37:11;;;;;;;11.18;6.28;;;;;;;;;;5010481;28;20034;-70
2021/12/08 09:39:59;;;;;;;9.27;5.57;;;;;;;;;;5008888;28;20038;-66
2021/12/08 09:42:47;;;;;;;8.80;5.85;;;;;;;;;;4984805;28;20066;-66
2021/12/08 09:45:38;;;;;;;10.13;6.75;;;;;;;;;;5002755;28;20030;-64
2021/12/08 09:48:27;;;;;;;10.32;6.90;;;;;;;;;;5008622;28;20099;-66
2021/12/08 09:51:16;;;;;;;10.23;6.05;;;;;;;;;;5010167;28;20486;-65
2021/12/08 09:54:01;;;;;;;8.40;5.80;;;;;;;;;;4994935;28;20041;-64
2021/12/08 09:56:49;;;;;;;10.80;5.75;;;;;;;;;;5010223;28;20058;-75
2021/12/08 09:59:35;;;;;;;7.70;5.25;;;;;;;;;;4987860;28;20066;-63
2021/12/08 10:02:32;;;;;;;8.50;5.63;;;;;;;;;;5008185;28;20377;-66
2021/12/08 10:05:18;;;;;;;11.63;6.20;;;;;;;;;;5002101;28;20273;-64
2021/12/08 10:08:04;;;;;;;10.23;6.80;;;;;;;;;;4995250;28;20034;-64
2021/12/08 10:10:50;;;;;;;12.90;8.05;;;;;;;;;;4991103;28;20140;-65
2021/12/08 10:13:35;;;;;;;109.68;71.90;;;;;;;;;;5010024;28;20037;-63
2021/12/08 10:16:20;;;;;;;20.33;13.45;;;;;;;;;;5005732;28;20034;-74
2021/12/08 10:19:06;;;;;;;10.20;6.55;;;;;;;;;;4994088;28;20508;-67
2021/12/08 10:21:51;;;;;;;10.30;6.75;;;;;;;;;;4995537;28;20033;-70
2021/12/08 10:24:37;;;;;;;12.63;7.40;;;;;;;;;;5007067;28;20473;-68
2021/12/08 10:27:22;;;;;;;8.80;5.75;;;;;;;;;;5016599;28;20025;-70
2021/12/08 10:30:21;;;;;;;12.48;7.50;;;;;;;;;;5006256;28;20091;-66
2021/12/08 10:33:34;;;;;;;13.13;7.57;;;;;;;;;;5018004;28;20037;-71
2021/12/08 10:39:28;;;;;;;28.23;20.45;;;;;;;;;;5007517;28;20174;-67
2021/12/08 10:42:18;;;;;;;14.23;8.70;;;;;;;;;;5007804;28;20129;-67
2021/12/08 10:47:53;;;;;;;9.52;6.30;;;;;;;;;;5008251;28;20129;-65
2021/12/08 10:56:47;;;;;;;9.50;6.60;;;;;;;;;;5007389;28;20038;-66
2021/12/08 10:59:51;;;;;;;8.38;5.43;;;;;;;;;;5008585;28;20169;-67
2021/12/08 11:02:42;;;;;;;10.55;6.43;;;;;;;;;;5002360;28;20357;-67
2021/12/08 11:05:36;;;;;;;10.27;6.32;;;;;;;;;;5008610;28;20444;-64
2021/12/08 11:08:29;;;;;;;11.40;7.40;;;;;;;;;;5006753;28;20046;-64
2021/12/08 11:11:22;;;;;;;11.60;7.65;;;;;;;;;;5008285;28;20116;-73
2021/12/08 11:14:08;;;;;;;11.68;6.72;;;;;;;;;;5007641;28;20065;-70
2021/12/08 11:16:53;;;;;;;9.40;6.50;;;;;;;;;;5006266;28;20026;-66
2021/12/08 11:19:38;;;;;;;10.50;6.78;;;;;;;;;;4993149;28;20095;-67
2021/12/08 11:22:29;;;;;;;6.75;4.20;;;;;;;;;;5006112;28;20025;-67
2021/12/08 11:25:23;;;;;;;9.07;5.63;;;;;;;;;;5007959;28;20665;-66
2021/12/08 11:28:16;;;;;;;16.77;10.35;;;;;;;;;;5006505;28;20049;-69
2021/12/08 11:31:20;;;;;;;19.27;13.15;;;;;;;;;;5004552;28;20022;-70
2021/12/08 11:34:09;;;;;;;11.25;7.07;;;;;;;;;;5003998;28;20041;-65
2021/12/08 11:36:55;;;;;;;;;;;;;;;;;;5007712;28;20572;-63
2021/12/08 11:39:45;;;;;;;13.20;5.68;;;;;;;;;;5005914;28;19924;-65
2021/12/08 11:42:34;;;;;;;8.38;4.90;;;;;;;;;;4982552;28;20033;-61
2021/12/08 11:45:21;;;;;;;9.15;4.50;;;;;;;;;;4993043;28;20041;-63
2021/12/08 11:48:22;;;;;;;9.15;5.40;;;;;;;;;;4988193;28;20091;-68
2021/12/08 11:51:08;;;;;;;8.20;5.28;;;;;;;;;;5004333;28;20031;-72
2021/12/08 11:53:54;;;;;;;7.75;4.97;;;;;;;;;;5003213;28;20038;-75
2021/12/08 11:56:40;;;;;;;7.05;4.50;;;;;;;;;;4994515;28;20080;-71
2021/12/08 11:59:25;;;;;;;7.43;4.78;;;;;;;;;;5006078;28;20046;-74
2021/12/08 12:02:13;;;;;;;10.18;5.05;;;;;;;;;;5007291;28;20091;-74
2021/12/08 12:04:59;;;;;;;12.70;7.85;;;;;;;;;;4979741;28;20034;-73
2021/12/08 12:07:46;;;;;;;8.40;5.78;;;;;;;;;;4993930;28;20040;-68
2021/12/08 12:10:34;;;;;;;9.95;6.40;;;;;;;;;;5006299;28;20488;-68
2021/12/08 12:13:19;;;;;;;6.78;4.82;;;;;;;;;;5008659;28;20539;-70
2021/12/08 12:16:05;;;;;;;7.32;4.90;;;;;;;;;;4992566;28;20473;-70
2021/12/08 12:18:53;;;;;;;7.88;4.63;;;;;;;;;;5007837;28;20501;-70
2021/12/08 12:21:51;;;;;;;7.28;4.57;;;;;;;;;;5008070;28;20037;-68
2021/12/08 12:25:03;;;;;;;9.48;5.57;;;;;;;;;;4994239;28;20042;-70
2021/12/08 12:27:57;;;;;;;9.25;6.10;;;;;;;;;;4993265;28;20420;-72
2021/12/08 12:30:51;;;;;;;7.72;4.45;;;;;;;;;;5010482;28;20041;-69
2021/12/08 12:33:41;;;;;;;8.10;4.93;;;;;;;;;;5008898;28;20406;-68
2021/12/08 12:36:31;;;;;;;8.32;5.18;;;;;;;;;;4993541;28;20324;-66
2021/12/08 12:39:16;;;;;;;;;;;;;;;;;;4985363;28;20042;-69
2021/12/08 12:42:10;;;;;;;8.35;5.28;;;;;;;;;;5010879;28;19921;-70
2021/12/08 12:44:59;;;;;;;8.95;5.47;;;;;;;;;;5009337;28;20041;-62
2021/12/08 12:48:04;;;;;;;7.53;4.85;;;;;;;;;;4996973;28;20353;-68
2021/12/08 12:50:54;;;;;;;7.55;4.68;;;;;;;;;;4985284;28;20041;-71
2021/12/08 12:53:44;;;;;;;8.57;5.40;;;;;;;;;;5023025;28;20096;-70
2021/12/08 12:56:30;;;;;;;10.15;5.10;;;;;;;;;;4992540;28;20030;-67
2021/12/08 12:59:18;;;;;;;9.38;6.55;;;;;;;;;;4993037;28;20047;-69
2021/12/08 13:02:03;;;;;;;8.13;5.50;;;;;;;;;;5008031;28;20115;-63
2021/12/08 13:04:59;;;;;;;8.88;5.90;;;;;;;;;;5011070;28;20134;-72
2021/12/08 13:07:58;;;;;;;8.68;5.90;;;;;;;;;;5009826;28;20033;-77
2021/12/08 13:10:43;;;;;;;12.98;7.15;;;;;;;;;;4999894;28;20515;-74
2021/12/08 13:13:43;;;;;;;7.80;5.47;;;;;;;;;;5009481;28;20759;-73
2021/12/08 13:16:28;;;;;;;;;;;;;;;;;;5009350;28;20041;-74
2021/12/08 13:19:14;;;;;;;13.02;7.63;;;;;;;;;;5008559;28;19913;-73
2021/12/08 13:21:59;;;;;;;11.57;6.63;;;;;;;;;;5007786;28;20052;-71
2021/12/08 13:24:44;;;;;;;9.25;6.20;;;;;;;;;;5005676;28;20149;-71
2021/12/08 13:27:30;;;;;;;7.10;4.53;;;;;;;;;;5008874;28;20437;-70
2021/12/08 13:30:17;;;;;;;7.60;5.30;;;;;;;;;;5008665;28;20427;-71
2021/12/08 13:33:09;;;;;;;9.13;5.10;;;;;;;;;;5008858;28;20034;-70
2021/12/08 13:35:55;;;;;;;7.53;5.00;;;;;;;;;;5006589;28;20022;-70
2021/12/08 13:38:41;;;;;;;9.90;6.05;;;;;;;;;;5009874;28;20026;-68
2021/12/08 13:41:31;;;;;;;11.70;6.13;;;;;;;;;;4994677;28;20097;-66
2021/12/08 13:44:25;;;;;;;7.95;5.00;;;;;;;;;;4995882;28;20029;-66
2021/12/08 13:47:28;;;;;;;9.93;6.38;;;;;;;;;;5008164;28;20098;-64
2021/12/08 13:50:21;;;;;;;10.73;6.97;;;;;;;;;;4991276;28;20061;-64
2021/12/08 13:53:10;;;;;;;13.45;7.53;;;;;;;;;;4982995;28;20030;-66
2021/12/08 13:56:00;;;;;;;10.15;6.55;;;;;;;;;;4987672;28;20038;-70
2021/12/08 13:58:45;;;;;;;14.55;6.88;;;;;;;;;;5006822;28;20062;-69
2021/12/08 14:01:36;;;;;;;11.73;7.03;;;;;;;;;;4995543;28;20758;-67
2021/12/08 14:04:22;;;;;;;11.15;7.68;;;;;;;;;;5008710;28;20045;-66
2021/12/08 14:07:14;;;;;;;77.03;53.88;;;;;;;;;;5009275;28;20030;-68
2021/12/08 14:10:02;;;;;;;23.15;16.33;;;;;;;;;;4987741;28;20118;-70
2021/12/08 14:12:50;;;;;;;17.20;10.75;;;;;;;;;;5008988;28;20396;-68
2021/12/08 14:15:41;;;;;;;11.60;7.85;;;;;;;;;;5008285;28;20127;-67
2021/12/08 14:18:37;;;;;;;9.45;7.15;;;;;;;;;;4989879;28;20030;-67
2021/12/08 14:21:32;;;;;;;9.88;6.45;;;;;;;;;;4991268;28;20033;-65
2021/12/08 14:24:18;;;;;;;8.98;4.95;;;;;;;;;;4980710;28;20520;-68
2021/12/08 14:27:03;;;;;;;10.70;6.43;;;;;;;;;;4997689;28;20373;-69
2021/12/08 14:29:48;;;;;;;14.35;5.75;;;;;;;;;;4994841;28;20022;-69
2021/12/08 14:32:34;;;;;;;10.35;7.20;;;;;;;;;;4991710;28;20029;-76
2021/12/08 14:35:19;;;;;;;11.32;8.00;;;;;;;;;;5007820;28;20511;-67
2021/12/08 14:38:05;;;;;;;9.52;6.05;;;;;;;;;;4990848;28;20029;-68
2021/12/08 14:40:50;;;;;;;9.15;6.25;;;;;;;;;;5000380;28;20026;-69
2021/12/08 14:43:38;;;;;;;14.50;8.48;;;;;;;;;;5011414;28;20480;-66
2021/12/08 14:46:24;;;;;;;12.73;6.22;;;;;;;;;;5006751;28;20026;-67
2021/12/08 14:49:12;;;;;;;12.32;7.43;;;;;;;;;;5008838;28;20029;-69
2021/12/08 14:52:02;;;;;;;10.38;6.68;;;;;;;;;;5004410;28;20034;-69
2021/12/08 14:54:49;;;;;;;11.80;6.43;;;;;;;;;;5002059;28;20768;-69
2021/12/08 14:57:41;;;;;;;17.63;8.07;;;;;;;;;;5003882;28;20031;-71
2021/12/08 15:00:29;;;;;;;16.33;10.77;;;;;;;;;;4979856;28;20495;-70
2021/12/08 15:03:16;;;;;;;14.43;8.32;;;;;;;;;;5008304;28;20033;-69
2021/12/08 15:06:01;;;;;;;28.13;20.80;;;;;;;;;;5001698;28;20473;-68
2021/12/08 15:08:47;;;;;;;27.48;19.42;;;;;;;;;;5008133;28;20045;-68
2021/12/08 15:11:32;;;;;;;28.35;17.67;;;;;;;;;;5032722;28;20038;-68
2021/12/08 15:14:18;;;;;;;12.68;8.38;;;;;;;;;;5008943;28;20049;-70
2021/12/08 15:17:03;;;;;;;15.98;10.68;;;;;;;;;;5006252;28;20129;-68
2021/12/08 15:19:53;;;;;;;19.17;11.45;;;;;;;;;;5004595;28;20423;-66
2021/12/08 15:22:40;;;;;;;15.85;9.70;;;;;;;;;;5005699;28;20042;-69
2021/12/08 15:25:26;;;;;;;18.33;11.55;;;;;;;;;;5007771;28;20056;-74
2021/12/08 15:28:31;;;;;;;14.45;8.82;;;;;;;;;;5006055;28;20393;-69
2021/12/08 15:31:17;;;;;;;18.35;10.65;;;;;;;;;;5020929;28;20358;-72
2021/12/08 15:34:17;;;;;;;16.88;8.77;;;;;;;;;;5004446;28;20094;-69
2021/12/08 15:37:04;;;;;;;14.95;8.73;;;;;;;;;;5006091;28;20061;-70
2021/12/08 15:40:19;;;;;;;15.85;10.13;;;;;;;;;;5007976;28;20034;-69
2021/12/08 15:46:27;;;;;;;14.40;9.70;;;;;;;;;;4957867;28;20080;-73
2021/12/08 15:49:24;;;;;;;16.00;10.32;;;;;;;;;;4962840;28;20034;-70
2021/12/08 15:52:13;;;;;;;14.90;9.68;;;;;;;;;;4984672;28;21054;-67
2021/12/08 15:55:05;;;;;;;14.88;10.20;;;;;;;;;;4987141;28;20030;-68
2021/12/08 15:58:02;;;;;;;16.13;9.27;;;;;;;;;;4986654;28;20038;-64
2021/12/08 16:00:57;;;;;;;13.40;8.68;;;;;;;;;;4992040;28;20070;-64
2021/12/08 16:03:56;;;;;;;16.63;11.27;;;;;;;;;;4988620;28;20090;-67
2021/12/08 16:06:47;;;;;;;36.50;25.67;;;;;;;;;;4977326;28;20490;-68
2021/12/08 16:09:33;;;;;;;32.92;19.40;;;;;;;;;;4986337;28;20057;-69
2021/12/08 16:12:18;;;;;;;19.23;12.70;;;;;;;;;;4983267;28;20027;-70
2021/12/08 16:15:04;;;;;;;18.77;11.07;;;;;;;;;;4949988;28;20031;-70
2021/12/08 16:18:01;;;;;;;20.08;10.63;;;;;;;;;;4968924;28;20022;-70
2021/12/08 16:20:47;;;;;;;20.52;10.45;;;;;;;;;;4967352;28;20031;-69
2021/12/08 16:23:35;;;;;;;15.10;10.13;;;;;;;;;;4969246;28;20023;-70
2021/12/08 16:26:24;;;;;;;16.10;10.35;;;;;;;;;;4970699;28;20437;-66
2021/12/08 16:29:09;;;;;;;16.40;10.15;;;;;;;;;;4968076;28;20221;-68
2021/12/08 16:31:55;;;;;;;17.88;9.23;;;;;;;;;;4969801;28;20026;-68
2021/12/08 16:34:41;;;;;;;14.25;9.55;;;;;;;;;;4964667;28;20027;-68
2021/12/08 16:37:26;;;;;;;18.77;9.70;;;;;;;;;;4971907;28;20038;-68
2021/12/08 16:43:00;;;;;;;17.73;11.85;;;;;;;;;;4972160;28;20034;-65
2021/12/08 16:45:47;;;;;;;20.38;10.82;;;;;;;;;;4961687;28;20031;-65
2021/12/08 16:48:32;;;;;;;19.48;12.45;;;;;;;;;;4939518;28;20518;-67
2021/12/08 16:51:18;;;;;;;18.10;12.48;;;;;;;;;;4978225;28;20038;-67
2021/12/08 16:54:03;;;;;;;17.77;11.40;;;;;;;;;;4975961;28;20022;-64
2021/12/08 16:56:49;;;;;;;20.90;13.32;;;;;;;;;;4986019;28;20045;-66
2021/12/08 16:59:34;;;;;;;23.65;12.65;;;;;;;;;;4980215;28;20023;-66
2021/12/08 17:02:19;;;;;;;55.42;42.45;;;;;;;;;;4988958;28;20106;-67
2021/12/08 17:05:05;;;;;;;31.40;23.40;;;;;;;;;;4976292;28;20055;-72
2021/12/08 17:07:50;;;;;;;16.25;11.30;;;;;;;;;;4967805;28;20073;-69
2021/12/08 17:10:36;;;;;;;20.48;14.20;;;;;;;;;;4973241;28;20031;-72
2021/12/08 17:23:30;;;;;;;23.58;10.88;;;;;;;;;;4802371;29;20046;-71
2021/12/08 17:39:05;;;;;;;16.60;9.65;;;;;;;;;;5155018;27;20151;-65
2021/12/08 17:52:36;;;;;;;16.80;10.32;;;;;;;;;;4833565;29;20046;-68
2021/12/08 17:55:22;;;;;;;20.58;11.63;;;;;;;;;;4684220;30;20049;-65
2021/12/08 17:58:08;;;;;;;19.38;12.45;;;;;;;;;;4517633;30;65941;-66
2021/12/08 18:00:53;;;;;;;19.67;11.68;;;;;;;;;;4166334;32;48612;-69
2021/12/08 18:03:38;;;;;;;23.67;13.13;;;;;;;;;;4009412;35;20067;-65
2021/12/08 18:06:24;;;;;;;14.77;9.38;;;;;;;;;;3950861;35;20062;-65
2021/12/08 18:09:12;;;;;;;19.63;11.10;;;;;;;;;;3944186;36;20068;-70
2021/12/08 18:11:58;;;;;;;17.48;11.50;;;;;;;;;;3946840;36;20134;-70
2021/12/08 18:24:52;;;;;;;12.50;7.38;;;;;;;;;;4081043;34;42085;-76
2021/12/08 18:27:37;;;;;;;16.13;8.32;;;;;;;;;;4071612;35;20053;-72